Time;durP1;ratioP1;P1;durP2;ratioP2;P2;SDS_P1;SDS_P2;PMS_P1;PMS_P2;Temp;Humidity;BMP_temperature;BMP_pressure;BME280_temperature;BME280_humidity;BME280_pressure;Samples;Min_cycle;Max_cycle;Signal;HPM_P1;HPM_P2
2022/10/22 00:00:08;;;;;;;4.05;1.92;;;17.20;99.90;;;;;;5116487;28;20492;-78
2022/10/22 00:02:34;;;;;;;5.22;1.90;;;17.30;99.90;;;;;;5115348;28;20503;-79
2022/10/22 00:05:00;;;;;;;3.65;1.75;;;17.30;99.90;;;;;;5095969;28;20024;-79
2022/10/22 00:07:25;;;;;;;5.45;1.88;;;17.30;99.90;;;;;;5095718;28;20488;-78
2022/10/22 00:09:51;;;;;;;3.38;1.45;;;17.30;99.90;;;;;;5095518;28;20077;-79
2022/10/22 00:12:16;;;;;;;2.17;1.35;;;17.30;99.90;;;;;;5095255;28;20420;-79
2022/10/22 00:14:42;;;;;;;5.00;1.80;;;17.20;99.90;;;;;;5095375;28;20035;-79
2022/10/22 00:17:08;;;;;;;4.43;1.70;;;17.20;99.90;;;;;;5095399;28;20039;-79
2022/10/22 00:19:34;;;;;;;3.00;1.88;;;17.20;99.90;;;;;;5095313;28;20032;-79
2022/10/22 00:21:59;;;;;;;2.33;1.30;;;17.20;99.90;;;;;;5095325;28;20479;-78
2022/10/22 00:24:25;;;;;;;3.05;1.60;;;17.20;99.90;;;;;;5095300;28;20028;-79
2022/10/22 00:26:51;;;;;;;3.28;1.30;;;17.20;99.90;;;;;;5094870;28;20032;-78
2022/10/22 00:29:19;;;;;;;2.55;1.15;;;17.30;99.90;;;;;;5095653;28;20108;-79
2022/10/22 00:31:48;;;;;;;2.47;1.20;;;17.20;99.90;;;;;;5104033;28;20027;-79
2022/10/22 00:34:20;;;;;;;6.45;1.38;;;17.20;99.90;;;;;;5115749;28;20028;-79
2022/10/22 00:36:46;;;;;;;3.15;1.35;;;17.20;99.90;;;;;;5115517;28;20453;-79
2022/10/22 00:39:15;;;;;;;3.22;1.15;;;17.20;99.90;;;;;;5115434;28;20028;-79
2022/10/22 00:41:42;;;;;;;2.22;1.10;;;17.20;99.90;;;;;;5115270;28;20120;-79
2022/10/22 00:44:46;;;;;;;1.80;1.10;;;17.20;99.90;;;;;;5115942;28;20498;-79
2022/10/22 00:47:12;;;;;;;2.22;0.93;;;17.10;99.90;;;;;;5114420;28;20495;-79
2022/10/22 00:49:37;;;;;;;2.75;1.00;;;17.10;99.90;;;;;;5115692;28;20047;-79
2022/10/22 00:52:03;;;;;;;1.48;1.00;;;17.20;99.90;;;;;;5115104;28;20020;-79
2022/10/22 00:54:29;;;;;;;1.88;0.90;;;17.10;99.90;;;;;;5115121;28;20084;-79
2022/10/22 00:56:55;;;;;;;3.45;0.93;;;17.10;99.90;;;;;;5114932;28;20043;-79
2022/10/22 00:59:20;;;;;;;1.33;1.00;;;17.10;99.90;;;;;;5115071;28;20027;-79
2022/10/22 01:01:46;;;;;;;3.83;1.20;;;17.00;99.90;;;;;;5114856;28;20094;-78
2022/10/22 01:04:12;;;;;;;2.42;0.93;;;17.10;99.90;;;;;;5100448;28;20098;-79
2022/10/22 01:06:38;;;;;;;1.40;1.05;;;17.10;99.90;;;;;;5094558;28;20028;-79
2022/10/22 01:09:25;;;;;;;1.23;1.00;;;17.10;99.90;;;;;;5094384;28;20028;-79
2022/10/22 01:12:13;;;;;;;2.70;1.05;;;17.10;99.90;;;;;;5093898;28;20040;-79
2022/10/22 01:15:01;;;;;;;1.40;0.90;;;17.10;99.90;;;;;;5094343;28;20020;-79
2022/10/22 01:17:49;;;;;;;3.38;1.10;;;17.10;99.90;;;;;;5094252;28;20083;-79
2022/10/22 01:20:59;;;;;;;1.58;0.88;;;17.00;99.90;;;;;;5094592;28;20534;-79
2022/10/22 01:23:54;;;;;;;5.50;1.08;;;17.00;99.90;;;;;;5090630;28;20047;-78
2022/10/22 01:26:35;;;;;;;1.67;1.00;;;17.00;99.90;;;;;;5011920;28;20109;-79
2022/10/22 01:29:16;;;;;;;3.47;0.98;;;16.90;99.90;;;;;;5012061;28;20030;-79
2022/10/22 01:31:47;;;;;;;2.90;1.00;;;16.90;99.90;;;;;;5020045;28;20048;-79
2022/10/22 01:34:16;;;;;;;3.13;1.00;;;16.80;99.90;;;;;;5031780;28;20481;-78
2022/10/22 01:36:42;;;;;;;2.70;1.13;;;16.90;99.90;;;;;;5031607;28;20540;-78
2022/10/22 01:39:09;;;;;;;4.15;1.42;;;16.90;99.90;;;;;;5031651;28;20032;-79
2022/10/22 01:41:35;;;;;;;2.67;1.10;;;16.90;99.90;;;;;;5031511;28;20108;-79
2022/10/22 01:44:00;;;;;;;2.67;1.20;;;16.80;99.90;;;;;;5031086;28;20061;-78
2022/10/22 01:46:27;;;;;;;2.72;1.00;;;16.80;99.90;;;;;;5031802;28;20033;-79
2022/10/22 01:49:23;;;;;;;1.52;1.10;;;16.80;99.90;;;;;;5031340;28;20032;-79
2022/10/22 01:51:51;;;;;;;2.80;1.20;;;16.80;99.90;;;;;;5031215;28;20033;-78
2022/10/22 01:54:39;;;;;;;2.05;1.08;;;16.80;99.90;;;;;;5030998;28;20035;-79
2022/10/22 01:57:23;;;;;;;2.25;1.00;;;16.80;99.90;;;;;;5031030;28;20116;-79
2022/10/22 02:00:00;;;;;;;4.20;1.20;;;16.80;99.90;;;;;;5030773;28;20112;-78
2022/10/22 02:02:47;;;;;;;4.55;1.10;;;16.80;99.90;;;;;;5040201;28;20114;-79
2022/10/22 02:05:23;;;;;;;5.00;1.10;;;16.80;99.90;;;;;;5093313;28;20039;-79
2022/10/22 02:07:58;;;;;;;1.92;0.93;;;16.80;99.90;;;;;;5092946;28;20024;-79
2022/10/22 02:10:24;;;;;;;1.95;1.20;;;16.80;99.90;;;;;;5093277;28;20051;-79
2022/10/22 02:12:53;;;;;;;4.43;1.30;;;16.80;99.90;;;;;;5093528;28;20471;-79
2022/10/22 02:15:23;;;;;;;3.72;1.50;;;16.70;99.90;;;;;;5093171;28;20024;-78
2022/10/22 02:17:50;;;;;;;2.42;1.60;;;16.80;99.90;;;;;;5093147;28;20400;-79
2022/10/22 02:20:25;;;;;;;5.10;2.17;;;16.50;99.90;;;;;;5093524;28;20016;-78
2022/10/22 02:22:51;;;;;;;7.72;2.80;;;16.60;99.90;;;;;;5092800;28;20142;-79
2022/10/22 02:25:17;;;;;;;5.47;2.67;;;16.80;99.90;;;;;;5093044;28;20016;-78
2022/10/22 02:27:47;;;;;;;6.40;2.58;;;16.50;99.90;;;;;;5093416;28;20506;-79
2022/10/22 02:30:22;;;;;;;5.68;3.38;;;16.40;99.90;;;;;;5092936;28;20016;-79
2022/10/22 02:32:53;;;;;;;9.40;3.00;;;16.40;99.90;;;;;;5110840;28;20057;-79
2022/10/22 02:35:21;;;;;;;5.47;3.15;;;16.60;99.90;;;;;;5113291;28;20027;-79
2022/10/22 02:37:48;;;;;;;6.30;3.35;;;16.50;99.90;;;;;;5113060;28;20032;-79
2022/10/22 02:40:14;;;;;;;5.32;3.40;;;16.60;99.90;;;;;;5113190;28;20020;-78
2022/10/22 02:42:42;;;;;;;7.82;3.50;;;16.60;99.90;;;;;;5113064;28;20031;-79
2022/10/22 02:45:07;;;;;;;9.23;3.33;;;16.60;99.90;;;;;;5113921;28;20019;-79
2022/10/22 02:47:33;;;;;;;7.72;3.17;;;16.50;99.90;;;;;;5113619;28;20372;-79
2022/10/22 02:49:59;;;;;;;6.40;3.05;;;16.40;99.90;;;;;;5113273;28;20027;-79
2022/10/22 02:52:24;;;;;;;7.68;3.50;;;16.40;99.90;;;;;;5112597;28;20030;-78
2022/10/22 02:54:50;;;;;;;4.45;3.33;;;16.50;99.90;;;;;;5113060;28;20066;-79
2022/10/22 02:57:16;;;;;;;4.00;2.72;;;16.50;99.90;;;;;;5112644;28;20476;-79
2022/10/22 02:59:41;;;;;;;5.10;2.92;;;16.50;99.90;;;;;;5112814;28;20031;-79
2022/10/22 03:02:07;;;;;;;7.25;3.08;;;16.40;99.90;;;;;;5094714;28;20033;-79
2022/10/22 03:04:32;;;;;;;3.45;2.55;;;16.40;99.90;;;;;;5095642;28;20016;-79
2022/10/22 03:06:58;;;;;;;8.50;3.03;;;16.40;99.90;;;;;;5092185;28;20388;-79
2022/10/22 03:09:24;;;;;;;9.38;3.55;;;16.30;99.90;;;;;;5092531;28;20028;-79
2022/10/22 03:11:50;;;;;;;7.90;3.40;;;16.10;99.90;;;;;;5091905;28;20527;-80
2022/10/22 03:14:15;;;;;;;6.38;3.53;;;16.20;99.90;;;;;;5092321;28;20446;-79
2022/10/22 03:16:41;;;;;;;3.97;3.58;;;16.10;99.90;;;;;;5092646;28;20036;-79
2022/10/22 03:19:06;;;;;;;4.25;2.90;;;16.10;99.90;;;;;;5091903;28;20361;-79
2022/10/22 03:21:48;;;;;;;3.97;2.70;;;16.00;99.90;;;;;;5091980;28;20020;-79
2022/10/22 03:24:38;;;;;;;3.83;2.40;;;16.10;99.90;;;;;;5092623;28;20016;-79
2022/10/22 03:27:04;;;;;;;10.23;2.50;;;16.10;99.90;;;;;;5082309;28;20072;-79
2022/10/22 03:29:33;;;;;;;5.75;2.60;;;16.20;99.90;;;;;;5073654;28;20051;-79
2022/10/22 03:31:59;;;;;;;5.32;2.40;;;16.30;99.90;;;;;;5102975;28;20050;-79
2022/10/22 03:34:24;;;;;;;5.55;2.50;;;16.30;99.90;;;;;;5112227;28;20483;-79
2022/10/22 03:36:51;;;;;;;6.53;2.45;;;16.20;99.90;;;;;;5112881;28;20036;-79
2022/10/22 03:39:18;;;;;;;5.75;2.50;;;16.10;99.90;;;;;;5112402;28;20383;-79
2022/10/22 03:41:45;;;;;;;4.35;2.60;;;16.20;99.90;;;;;;5112353;28;20030;-78
2022/10/22 03:44:11;;;;;;;5.55;2.20;;;16.30;99.90;;;;;;5112436;28;20020;-79
2022/10/22 03:46:37;;;;;;;4.45;2.35;;;16.20;99.90;;;;;;5112383;28;20075;-78
2022/10/22 03:49:03;;;;;;;4.03;2.22;;;16.30;99.90;;;;;;5112065;28;20051;-78
2022/10/22 03:51:28;;;;;;;6.88;2.72;;;16.30;99.90;;;;;;5112546;28;20031;-79
2022/10/22 03:53:54;;;;;;;7.13;2.50;;;16.20;99.90;;;;;;5112359;28;20422;-79
2022/10/22 03:56:20;;;;;;;6.85;2.53;;;16.20;99.90;;;;;;5112180;28;20081;-78
2022/10/22 03:58:45;;;;;;;5.90;2.72;;;16.30;99.90;;;;;;5112311;28;20039;-79
2022/10/22 04:01:12;;;;;;;3.45;2.28;;;16.20;99.90;;;;;;5112469;28;20559;-79
2022/10/22 04:03:39;;;;;;;3.83;2.25;;;16.20;99.90;;;;;;5111542;28;20032;-79
2022/10/22 04:06:11;;;;;;;4.45;2.40;;;16.20;99.90;;;;;;5093786;28;20387;-79
2022/10/22 04:08:39;;;;;;;5.82;2.55;;;16.10;99.90;;;;;;5111925;28;20093;-79
2022/10/22 04:11:05;;;;;;;4.55;2.53;;;16.10;99.90;;;;;;5112055;28;20081;-79
2022/10/22 04:13:30;;;;;;;4.57;2.70;;;16.20;99.90;;;;;;5111693;28;20122;-79
2022/10/22 04:16:06;;;;;;;4.78;2.83;;;16.20;99.90;;;;;;5112502;28;20162;-79
2022/10/22 04:18:32;;;;;;;5.82;2.80;;;16.10;99.90;;;;;;5112246;28;20028;-79
2022/10/22 04:20:57;;;;;;;5.03;2.78;;;16.10;99.90;;;;;;5111896;28;20027;-79
2022/10/22 04:23:23;;;;;;;5.70;2.75;;;16.00;99.90;;;;;;5114698;28;20136;-79
2022/10/22 04:25:49;;;;;;;4.50;2.30;;;15.90;99.90;;;;;;5116022;28;20035;-79
2022/10/22 04:28:14;;;;;;;6.80;3.00;;;15.80;99.90;;;;;;5115725;28;20015;-79
2022/10/22 04:30:40;;;;;;;3.83;2.47;;;15.90;99.90;;;;;;5097257;28;20032;-80
2022/10/22 04:33:06;;;;;;;4.05;2.50;;;15.70;99.90;;;;;;5115121;28;20103;-79
2022/10/22 04:35:31;;;;;;;6.97;3.45;;;15.60;99.90;;;;;;5097286;28;20030;-79
2022/10/22 04:37:57;;;;;;;5.45;3.50;;;15.50;99.90;;;;;;5115519;28;20098;-79
2022/10/22 04:40:22;;;;;;;5.68;3.42;;;15.40;99.90;;;;;;5115221;28;20034;-79
2022/10/22 04:42:48;;;;;;;6.68;3.47;;;15.40;99.90;;;;;;5097326;28;20024;-79
2022/10/22 04:45:14;;;;;;;3.97;2.85;;;15.50;99.90;;;;;;5115361;28;20024;-80
2022/10/22 04:47:40;;;;;;;4.22;2.83;;;15.50;99.90;;;;;;5115267;28;20043;-79
2022/10/22 04:50:06;;;;;;;7.00;2.55;;;15.50;99.90;;;;;;5115368;28;20370;-79
2022/10/22 04:52:31;;;;;;;3.20;2.30;;;15.40;99.90;;;;;;5115135;28;20127;-79
2022/10/22 04:54:57;;;;;;;4.32;2.17;;;15.40;99.90;;;;;;5115003;28;20110;-79
2022/10/22 04:57:23;;;;;;;5.15;2.00;;;15.40;99.90;;;;;;5115038;28;20042;-79
2022/10/22 04:59:48;;;;;;;4.88;2.00;;;15.30;99.90;;;;;;5115046;28;20030;-79
2022/10/22 05:02:14;;;;;;;3.83;2.05;;;15.30;99.90;;;;;;5114680;28;20364;-79
2022/10/22 05:04:42;;;;;;;4.43;1.80;;;15.20;99.90;;;;;;5096593;28;20031;-79
2022/10/22 05:07:07;;;;;;;6.45;2.10;;;15.20;99.90;;;;;;5094722;28;20024;-79
2022/10/22 05:09:33;;;;;;;3.80;2.30;;;15.20;99.90;;;;;;5094719;28;20035;-79
2022/10/22 05:11:59;;;;;;;5.40;2.30;;;15.20;99.90;;;;;;5094200;28;20096;-79
2022/10/22 05:14:25;;;;;;;2.95;1.90;;;15.20;99.90;;;;;;5076225;28;20028;-79
2022/10/22 05:16:51;;;;;;;3.58;2.13;;;15.10;99.90;;;;;;5094825;28;20028;-79
2022/10/22 05:19:26;;;;;;;9.48;2.38;;;15.00;99.90;;;;;;5094246;28;20074;-79
2022/10/22 05:21:56;;;;;;;5.43;2.00;;;15.00;99.90;;;;;;5094188;28;20035;-79
2022/10/22 05:24:22;;;;;;;5.32;1.88;;;15.00;99.90;;;;;;5094437;28;20020;-79
2022/10/22 05:26:52;;;;;;;4.72;2.28;;;14.90;99.90;;;;;;5076486;28;20484;-79
2022/10/22 05:29:19;;;;;;;3.65;2.13;;;15.00;99.90;;;;;;5094061;28;20465;-79
2022/10/22 05:31:45;;;;;;;4.30;2.50;;;14.90;99.90;;;;;;5102675;28;20053;-79
2022/10/22 05:34:11;;;;;;;6.32;2.30;;;14.80;99.90;;;;;;5113221;28;20494;-79
2022/10/22 05:36:36;;;;;;;5.57;2.50;;;14.90;99.90;;;;;;5114102;28;20016;-80
2022/10/22 05:39:03;;;;;;;5.40;2.85;;;14.80;99.90;;;;;;5115001;28;20019;-79
2022/10/22 05:41:28;;;;;;;5.00;2.30;;;14.80;99.90;;;;;;5114788;28;20473;-79
2022/10/22 05:43:58;;;;;;;10.63;2.75;;;14.70;99.90;;;;;;5114163;28;20027;-79
2022/10/22 05:46:26;;;;;;;5.75;2.20;;;14.70;99.90;;;;;;5113695;28;20020;-79
2022/10/22 05:48:58;;;;;;;4.53;2.13;;;14.70;99.90;;;;;;5114942;28;20039;-79
2022/10/22 05:51:26;;;;;;;5.78;3.58;;;14.70;99.90;;;;;;5113989;28;20055;-78
2022/10/22 05:53:56;;;;;;;4.47;3.53;;;14.70;99.90;;;;;;5113887;28;20023;-79
2022/10/22 05:56:23;;;;;;;5.63;2.65;;;14.70;99.90;;;;;;5113849;28;20107;-79
2022/10/22 05:58:49;;;;;;;4.18;2.35;;;14.60;99.90;;;;;;5113872;28;20313;-79
2022/10/22 06:01:21;;;;;;;7.10;2.75;;;14.60;99.90;;;;;;5113908;28;20035;-79
2022/10/22 06:03:47;;;;;;;5.03;2.40;;;14.60;99.90;;;;;;5103543;28;20028;-79
2022/10/22 06:06:19;;;;;;;5.05;2.50;;;14.80;99.90;;;;;;5093248;28;20024;-79
2022/10/22 06:08:47;;;;;;;5.82;2.50;;;14.80;99.90;;;;;;5093586;28;20039;-79
2022/10/22 06:11:13;;;;;;;3.45;2.10;;;14.90;99.90;;;;;;5093290;28;20503;-78
2022/10/22 06:13:39;;;;;;;4.65;2.40;;;14.90;99.90;;;;;;5093024;28;20043;-79
2022/10/22 06:16:04;;;;;;;4.05;1.90;;;15.20;99.90;;;;;;5093326;28;20036;-79
2022/10/22 06:18:31;;;;;;;5.72;2.15;;;14.90;99.90;;;;;;5093530;28;20024;-79
2022/10/22 06:21:06;;;;;;;7.05;2.47;;;14.90;99.90;;;;;;5092920;28;20047;-79
2022/10/22 06:23:32;;;;;;;4.78;2.22;;;14.90;99.90;;;;;;5093029;28;20061;-79
2022/10/22 06:25:59;;;;;;;5.68;2.55;;;14.70;99.90;;;;;;5093109;28;20024;-79
2022/10/22 06:28:24;;;;;;;5.68;2.15;;;14.60;99.90;;;;;;5075018;28;20380;-79
2022/10/22 06:30:50;;;;;;;4.53;2.40;;;14.60;99.90;;;;;;5094215;28;20040;-79
2022/10/22 06:33:15;;;;;;;4.88;2.40;;;14.70;99.90;;;;;;5113378;28;20329;-79
2022/10/22 06:35:41;;;;;;;8.07;2.83;;;14.80;99.90;;;;;;5113385;28;20495;-79
2022/10/22 06:38:06;;;;;;;6.80;2.60;;;14.80;99.90;;;;;;5113275;28;20104;-79
2022/10/22 06:40:33;;;;;;;3.88;2.33;;;14.80;99.90;;;;;;5113100;28;20038;-79
2022/10/22 06:43:01;;;;;;;6.53;2.50;;;14.90;99.90;;;;;;5112759;28;20035;-78
2022/10/22 06:45:27;;;;;;;7.32;2.35;;;14.90;99.90;;;;;;5112977;28;20027;-79
2022/10/22 06:47:54;;;;;;;5.47;2.63;;;14.90;99.90;;;;;;5113007;28;20067;-79
2022/10/22 06:50:20;;;;;;;3.72;1.83;;;15.00;99.90;;;;;;5111841;28;20093;-80
2022/10/22 06:52:46;;;;;;;5.03;2.00;;;15.00;99.90;;;;;;5109752;28;20073;-80
2022/10/22 06:55:12;;;;;;;3.85;2.10;;;15.20;99.90;;;;;;5111450;28;20550;-83
2022/10/22 06:57:37;;;;;;;3.63;1.98;;;15.20;99.90;;;;;;5095541;28;20538;-85
2022/10/22 07:00:05;;;;;;;3.40;1.70;;;15.30;99.90;;;;;;5111945;28;20024;-83
2022/10/22 07:02:31;;;;;;;5.00;1.70;;;15.30;99.90;;;;;;5106853;28;20031;-83
2022/10/22 07:04:56;;;;;;;2.75;1.80;;;15.30;99.90;;;;;;5112339;28;20016;-81
2022/10/22 07:07:22;;;;;;;2.80;1.92;;;15.30;99.90;;;;;;5111387;28;20551;-80
2022/10/22 07:09:48;;;;;;;5.00;1.88;;;15.30;99.90;;;;;;5112520;28;20039;-80
2022/10/22 07:12:15;;;;;;;2.88;2.15;;;15.40;99.90;;;;;;5112156;28;20449;-80
2022/10/22 07:14:40;;;;;;;5.50;2.40;;;15.40;99.90;;;;;;5112804;28;20457;-80
2022/10/22 07:17:06;;;;;;;4.80;2.15;;;15.50;99.90;;;;;;5112853;28;20035;-80
2022/10/22 07:19:32;;;;;;;3.60;2.00;;;15.60;99.90;;;;;;5112596;28;20101;-81
2022/10/22 07:21:58;;;;;;;5.75;1.70;;;15.60;99.90;;;;;;5112426;28;20034;-80
2022/10/22 07:24:23;;;;;;;3.28;1.70;;;15.80;99.90;;;;;;5112869;28;20027;-81
2022/10/22 07:26:49;;;;;;;2.38;1.50;;;16.00;99.90;;;;;;5112161;28;20031;-80
2022/10/22 07:29:15;;;;;;;2.72;1.60;;;16.10;99.90;;;;;;5112703;28;20094;-81
2022/10/22 07:31:41;;;;;;;3.88;1.35;;;16.20;99.90;;;;;;5112370;28;20032;-80
2022/10/22 07:34:08;;;;;;;2.15;1.38;;;17.00;99.90;;;;;;5112337;28;20475;-80
2022/10/22 07:36:33;;;;;;;2.53;1.48;;;17.80;99.90;;;;;;5112333;28;20036;-81
2022/10/22 07:39:00;;;;;;;3.05;1.60;;;18.50;99.90;;;;;;5112421;28;20050;-81
2022/10/22 07:41:27;;;;;;;3.72;1.38;;;20.70;99.90;;;;;;5112111;28;20028;-80
2022/10/22 07:43:53;;;;;;;4.28;1.20;;;19.60;99.90;;;;;;5112472;28;20023;-80
2022/10/22 07:46:20;;;;;;;3.17;1.25;;;20.20;99.90;;;;;;5112238;28;20032;-81
2022/10/22 07:48:46;;;;;;;3.85;1.30;;;21.30;99.90;;;;;;5112282;28;20495;-81
2022/10/22 07:51:11;;;;;;;2.28;1.33;;;26.10;99.90;;;;;;5113065;28;20027;-81
2022/10/22 07:53:37;;;;;;;3.30;1.30;;;28.90;99.90;;;;;;5112385;28;20027;-81
2022/10/22 07:56:04;;;;;;;3.38;1.10;;;30.00;99.90;;;;;;5111731;28;20161;-81
2022/10/22 07:58:29;;;;;;;2.20;1.38;;;29.60;99.90;;;;;;5114896;28;20039;-80
2022/10/22 08:00:57;;;;;;;1.85;1.08;;;29.60;99.90;;;;;;5097739;28;20031;-81
2022/10/22 08:03:22;;;;;;;3.60;1.50;;;30.60;99.90;;;;;;5108630;28;20028;-81
2022/10/22 08:05:48;;;;;;;3.65;1.33;;;32.40;99.90;;;;;;5077867;28;20024;-81
2022/10/22 08:08:15;;;;;;;1.80;1.00;;;32.30;99.90;;;;;;5095700;28;20032;-81
2022/10/22 08:10:42;;;;;;;2.75;1.20;;;33.30;99.90;;;;;;5095211;28;20030;-81
2022/10/22 08:13:08;;;;;;;2.10;0.93;;;34.30;99.90;;;;;;5095801;28;20056;-81
2022/10/22 08:15:33;;;;;;;3.17;1.17;;;33.90;99.90;;;;;;5095470;28;20024;-81
2022/10/22 08:17:59;;;;;;;5.57;1.20;;;33.90;99.90;;;;;;5096338;28;20094;-81
2022/10/22 08:20:25;;;;;;;3.67;0.98;;;34.10;99.90;;;;;;5095609;28;20571;-83
2022/10/22 08:22:50;;;;;;;1.98;1.20;;;34.20;99.90;;;;;;5077206;28;20081;-81
2022/10/22 08:25:17;;;;;;;4.20;1.10;;;35.10;99.90;;;;;;5095163;28;20107;-81
2022/10/22 08:27:43;;;;;;;2.25;1.20;;;30.70;99.90;;;;;;5095681;28;20046;-81
2022/10/22 08:30:10;;;;;;;1.98;1.20;;;33.10;99.90;;;;;;5094938;28;20028;-81
2022/10/22 08:32:35;;;;;;;4.00;1.17;;;34.10;99.90;;;;;;5111576;28;20028;-81
2022/10/22 08:35:01;;;;;;;2.40;1.15;;;33.20;99.90;;;;;;5115446;28;20542;-81
2022/10/22 08:37:27;;;;;;;1.58;1.00;;;34.20;99.90;;;;;;5115495;28;20046;-81
2022/10/22 08:39:52;;;;;;;2.00;0.80;;;36.00;99.90;;;;;;5115100;28;20030;-81
2022/10/22 08:42:45;;;;;;;4.05;1.00;;;35.50;99.90;;;;;;5115855;28;20024;-81
2022/10/22 08:45:28;;;;;;;1.70;1.00;;;34.70;99.90;;;;;;5115265;28;20076;-81
2022/10/22 08:48:02;;;;;;;1.40;0.95;;;34.90;99.90;;;;;;5115310;28;20055;-81
2022/10/22 08:50:45;;;;;;;2.55;1.10;;;35.10;99.90;;;;;;5115569;28;20077;-81
2022/10/22 08:53:19;;;;;;;3.95;1.00;;;35.00;99.90;;;;;;5115032;28;20034;-81
2022/10/22 08:55:46;;;;;;;1.35;1.00;;;36.20;99.90;;;;;;5115071;28;20034;-81
2022/10/22 08:58:37;;;;;;;1.92;0.90;;;35.90;99.90;;;;;;5115111;28;20024;-81
2022/10/22 09:01:13;;;;;;;1.45;0.85;;;35.80;99.90;;;;;;5114948;28;20190;-81
2022/10/22 09:04:00;;;;;;;1.95;0.98;;;36.90;99.90;;;;;;5105332;28;20030;-81
2022/10/22 09:06:32;;;;;;;0.93;0.80;;;38.30;99.90;;;;;;5094538;28;20386;-81
2022/10/22 09:08:59;;;;;;;2.78;0.82;;;38.60;99.90;;;;;;5094071;28;20023;-81
2022/10/22 09:11:35;;;;;;;2.92;1.25;;;38.40;99.90;;;;;;5094668;28;20028;-81
2022/10/22 09:14:02;;;;;;;1.40;0.85;;;38.70;99.90;;;;;;5094500;28;20035;-81
2022/10/22 09:16:34;;;;;;;2.22;0.65;;;39.20;99.90;;;;;;5094532;28;20040;-81
2022/10/22 09:19:33;;;;;;;3.55;1.00;;;39.50;99.90;;;;;;5099675;28;20046;-83
2022/10/22 09:22:14;;;;;;;1.65;0.85;;;39.00;99.90;;;;;;5099600;28;20085;-84
2022/10/22 09:24:49;;;;;;;0.82;0.68;;;39.60;99.90;;;;;;5094396;28;20024;-84
2022/10/22 09:27:20;;;;;;;0.90;0.70;;;38.60;99.90;;;;;;5111748;28;20039;-84
2022/10/22 09:29:46;;;;;;;1.40;0.70;;;39.90;99.90;;;;;;5113632;28;20065;-84
2022/10/22 09:32:13;;;;;;;2.00;0.95;;;37.60;99.90;;;;;;5114498;28;20020;-83
2022/10/22 09:34:39;;;;;;;2.65;1.02;;;37.40;99.90;;;;;;5114040;28;20055;-84
2022/10/22 09:37:08;;;;;;;1.10;0.70;;;37.90;99.90;;;;;;5113941;28;20052;-81
2022/10/22 09:39:38;;;;;;;1.95;0.70;;;38.30;99.90;;;;;;5114021;28;20020;-81
2022/10/22 09:42:05;;;;;;;2.90;0.70;;;39.00;99.90;;;;;;5110676;28;20055;-81
2022/10/22 09:44:36;;;;;;;1.17;0.80;;;37.40;99.90;;;;;;5114617;28;20557;-81
2022/10/22 09:47:06;;;;;;;3.00;0.80;;;36.80;99.90;;;;;;5113997;28;20102;-81
2022/10/22 09:49:35;;;;;;;0.80;0.80;;;36.30;99.90;;;;;;5114179;28;20532;-81
2022/10/22 09:52:01;;;;;;;1.65;0.82;;;36.40;99.90;;;;;;5113369;28;20031;-81
2022/10/22 09:54:37;;;;;;;1.27;0.88;;;34.90;99.90;;;;;;5115563;28;20020;-83
2022/10/22 09:57:16;;;;;;;1.67;0.80;;;37.00;99.90;;;;;;5108822;28;20104;-82
2022/10/22 09:59:44;;;;;;;2.35;0.85;;;36.60;99.90;;;;;;5114227;28;20019;-82
2022/10/22 10:02:21;;;;;;;2.38;1.00;;;37.80;99.90;;;;;;5109960;28;20024;-82
2022/10/22 10:04:49;;;;;;;2.40;1.05;;;37.10;99.90;;;;;;5094284;28;20375;-82
2022/10/22 10:07:19;;;;;;;1.70;1.20;;;37.40;99.90;;;;;;5110711;28;20043;-82
2022/10/22 10:09:45;;;;;;;0.90;0.80;;;36.60;99.90;;;;;;5108009;28;20430;-83
2022/10/22 10:12:14;;;;;;;1.10;0.90;;;39.10;99.90;;;;;;5087889;28;20468;-84
2022/10/22 10:14:45;;;;;;;2.42;1.25;;;40.10;99.90;;;;;;5093286;28;20094;-84
2022/10/22 10:17:43;;;;;;;1.25;1.15;;;37.20;99.90;;;;;;5092822;28;20373;-84
2022/10/22 10:20:31;;;;;;;2.13;0.90;;;39.70;99.90;;;;;;5090016;28;20044;-83
2022/10/22 10:23:07;;;;;;;1.63;1.00;;;38.60;99.90;;;;;;5093061;28;20562;-85
2022/10/22 10:25:51;;;;;;;1.90;1.70;;;40.40;99.90;;;;;;5092578;28;20519;-83
2022/10/22 10:28:35;;;;;;;2.83;1.70;;;40.30;99.90;;;;;;5092820;28;20043;-84
2022/10/22 10:31:42;;;;;;;2.22;1.00;;;40.50;99.90;;;;;;5092717;28;21849;-82
2022/10/22 10:34:29;;;;;;;2.80;1.10;;;39.20;99.90;;;;;;5092900;28;20032;-83
2022/10/22 10:37:04;;;;;;;1.67;1.20;;;41.20;99.90;;;;;;5091779;28;20119;-82
2022/10/22 10:39:52;;;;;;;2.88;1.30;;;41.20;99.90;;;;;;5092564;28;20145;-89
2022/10/22 10:42:32;;;;;;;1.38;0.90;;;41.70;99.90;;;;;;5092809;28;20478;-88
2022/10/22 10:45:01;;;;;;;2.10;1.20;;;38.90;99.90;;;;;;5091199;28;20070;-83
2022/10/22 10:47:33;;;;;;;3.00;1.30;;;40.50;99.90;;;;;;5092331;28;20445;-83
2022/10/22 10:50:18;;;;;;;3.80;0.93;;;39.10;99.90;;;;;;5091802;28;20597;-81
2022/10/22 10:53:25;;;;;;;2.75;1.10;;;39.70;99.90;;;;;;5092594;28;20095;-81
2022/10/22 10:56:27;;;;;;;3.35;1.10;;;38.40;99.90;;;;;;5069965;28;20041;-81
2022/10/22 10:59:00;;;;;;;2.22;1.05;;;38.70;99.90;;;;;;5069702;28;20120;-81
2022/10/22 11:01:31;;;;;;;2.15;1.25;;;41.70;99.90;;;;;;5069712;28;20041;-81
2022/10/22 11:04:12;;;;;;;1.73;1.00;;;40.60;99.90;;;;;;5057753;28;20037;-81
2022/10/22 11:06:39;;;;;;;3.22;1.25;;;40.10;99.90;;;;;;5059290;28;20114;-81
2022/10/22 11:09:29;;;;;;;3.35;1.70;;;42.30;99.90;;;;;;5070768;28;20028;-82
2022/10/22 11:11:58;;;;;;;1.40;1.05;;;39.90;99.90;;;;;;5069147;28;20075;-81
2022/10/22 11:15:04;;;;;;;1.52;1.30;;;39.80;99.90;;;;;;5070533;28;20407;-82
2022/10/22 11:17:40;;;;;;;1.80;1.02;;;38.50;99.90;;;;;;5064715;28;20607;-81
2022/10/22 11:20:25;;;;;;;2.13;1.30;;;38.60;99.90;;;;;;5050112;28;20066;-81
2022/10/22 11:22:58;;;;;;;5.95;1.33;;;39.50;99.90;;;;;;5039330;28;20045;-81
2022/10/22 11:25:29;;;;;;;2.67;1.20;;;39.40;99.90;;;;;;5049589;28;20033;-82
2022/10/22 11:28:23;;;;;;;2.78;1.35;;;39.70;99.90;;;;;;5049945;28;20024;-82
2022/10/22 11:30:58;;;;;;;2.28;1.27;;;41.70;99.90;;;;;;5033899;28;20037;-81
2022/10/22 11:33:28;;;;;;;3.70;1.17;;;39.60;99.90;;;;;;5090832;28;20145;-82
2022/10/22 11:36:05;;;;;;;3.47;1.30;;;38.30;99.90;;;;;;5096221;28;20028;-81
2022/10/22 11:38:33;;;;;;;3.58;1.58;;;38.20;99.90;;;;;;5095887;28;20051;-81
2022/10/22 11:41:08;;;;;;;2.03;1.42;;;37.40;99.90;;;;;;5096359;28;20024;-82
2022/10/22 11:43:50;;;;;;;4.03;1.50;;;40.00;99.90;;;;;;5095237;28;20388;-81
2022/10/22 11:46:16;;;;;;;7.53;2.10;;;40.20;99.90;;;;;;5096085;28;20035;-81
2022/10/22 11:48:42;;;;;;;5.93;1.83;;;40.80;99.90;;;;;;5095502;28;20380;-81
2022/10/22 11:51:37;;;;;;;5.47;2.30;;;40.60;99.90;;;;;;5096157;28;20426;-81
2022/10/22 11:54:30;;;;;;;5.78;2.17;;;36.60;99.90;;;;;;5095499;28;20028;-82
2022/10/22 11:57:14;;;;;;;3.72;2.08;;;38.40;99.90;;;;;;5095285;28;20052;-80
2022/10/22 11:59:44;;;;;;;5.80;1.90;;;39.20;99.90;;;;;;5098016;28;20515;-82
2022/10/22 12:02:43;;;;;;;5.47;1.90;;;40.60;99.90;;;;;;5094707;28;20036;-82
2022/10/22 12:05:21;;;;;;;6.00;2.88;;;41.40;99.90;;;;;;5084144;28;20123;-82
2022/10/22 12:07:58;;;;;;;6.20;2.38;;;38.80;99.90;;;;;;5095684;28;20035;-82
2022/10/22 12:10:27;;;;;;;5.90;2.10;;;40.90;99.90;;;;;;5082192;28;20119;-82
2022/10/22 12:13:11;;;;;;;3.95;2.28;;;39.40;99.90;;;;;;5109524;28;20122;-81
2022/10/22 12:15:47;;;;;;;5.85;2.50;;;39.60;99.90;;;;;;5115752;28;20077;-82
2022/10/22 12:18:14;;;;;;;5.85;2.17;;;40.50;99.90;;;;;;5115873;28;20031;-81
2022/10/22 12:20:40;;;;;;;5.00;2.38;;;42.00;99.90;;;;;;5109456;28;20036;-82
2022/10/22 12:23:10;;;;;;;5.20;1.90;;;42.70;99.90;;;;;;5115986;28;20019;-82
2022/10/22 12:25:36;;;;;;;5.28;2.40;;;39.30;99.90;;;;;;5115921;28;20055;-82
2022/10/22 12:28:02;;;;;;;3.67;1.88;;;39.30;99.90;;;;;;5114366;28;20107;-82
2022/10/22 12:30:36;;;;;;;5.90;2.10;;;39.10;99.90;;;;;;5115270;28;20555;-81
2022/10/22 12:33:04;;;;;;;4.65;2.20;;;40.60;99.90;;;;;;5115638;28;20047;-82
2022/10/22 12:35:45;;;;;;;6.70;2.08;;;39.90;99.90;;;;;;5097297;28;20035;-82
2022/10/22 12:38:17;;;;;;;4.13;2.30;;;38.90;99.90;;;;;;5115505;28;20039;-82
2022/10/22 12:40:43;;;;;;;5.03;2.08;;;41.00;99.90;;;;;;5115123;28;20440;-81
2022/10/22 12:43:14;;;;;;;4.80;2.30;;;40.40;99.90;;;;;;5109751;28;20059;-82
2022/10/22 12:45:43;;;;;;;5.03;2.08;;;39.40;99.90;;;;;;5115218;28;20111;-82
2022/10/22 12:48:22;;;;;;;4.47;1.90;;;38.30;99.90;;;;;;5115460;28;20020;-82
2022/10/22 12:50:57;;;;;;;4.32;1.90;;;38.00;99.90;;;;;;5115376;28;20475;-82
2022/10/22 12:53:38;;;;;;;6.35;2.10;;;38.20;99.90;;;;;;5115087;28;20035;-81
2022/10/22 12:56:12;;;;;;;5.68;2.20;;;37.90;99.90;;;;;;5115562;28;20526;-82
2022/10/22 12:58:39;;;;;;;4.65;1.90;;;39.40;99.90;;;;;;5115764;28;20117;-82
2022/10/22 13:01:05;;;;;;;5.07;2.40;;;39.70;99.90;;;;;;5114745;28;20030;-82
2022/10/22 13:03:43;;;;;;;2.65;1.65;;;38.70;99.90;;;;;;5106639;28;20106;-81
2022/10/22 13:06:18;;;;;;;4.75;1.88;;;39.10;99.90;;;;;;5094604;28;20067;-81